Impacts METAR Board
IDs:

KFLL - Ft Lauderdale-Hollyw, FL, US

Updated at: 1400 UTC 25 Jun 2019
Potential Impact None Slight Moderate High
Time 25/02Z 25/03Z 25/04Z 25/05Z 25/06Z 25/07Z 25/08Z 25/09Z 25/10Z 25/11Z 25/12Z 25/13Z 25/14Z
Temp85 85 85 84 84 83 82 82 82 82 83 86 88
Dewpt75 75 75 75 75 75 75 74 74 75 75 75 75
Altim30.03 30.04 30.03 30.03 30.02 30.01 30.00 29.99 30.00 30.03 30.04 30.05 30.06
VIS10 10 10 10 10 10 10 10 10 10 10 10 10
CIG-- -- -- -- -- -- -- -- -- -- -- -- --
CoverFEWCLRCLRFEWFEWCLRCLRCLRFEWCLRFEWFEWCLR
FltCatVFRVFRVFRVFRVFRVFRVFRVFRVFRVFRVFRVFRVFR
WX--------------------------
WDir180180180002200180220230250240210
WSpd4 5 4 0 0 3 0 3 3 3 4 6 3
WGst-- -- -- -- -- -- -- -- -- -- -- -- --
Raw hourly METARs
KFLL 250153Z 18004KT 10SM FEW250 29/24 A3003 RMK AO2 SLP167 T02940239 $
KFLL 250253Z 18005KT 10SM CLR 29/24 A3004 RMK AO2 SLP173 T02940239 53013 $
KFLL 250353Z 18004KT 10SM CLR 29/24 A3003 RMK AO2 SLP170 T02940239 $
KFLL 250453Z 00000KT 10SM FEW035 29/24 A3003 RMK AO2 SLP168 T02890239 403500261 $
KFLL 250553Z 00000KT 10SM FEW065 29/24 A3002 RMK AO2 SLP166 T02890239 10306 20283 56007 $
KFLL 250653Z 22003KT 10SM CLR 28/24 A3001 RMK AO2 SLP160 T02830239 $
KFLL 250753Z 00000KT 10SM CLR 28/24 A3000 RMK AO2 SLP157 T02780239 $
KFLL 250853Z 18003KT 10SM CLR 28/23 A2999 RMK AO2 SLP156 T02780233 56010 $
KFLL 250953Z 22003KT 10SM FEW250 28/23 A3000 RMK AO2 SLP159 T02780233 $
KFLL 251053Z 23003KT 10SM CLR 28/24 A3003 RMK AO2 SLP169 T02780239 $
KFLL 251153Z 25004KT 10SM FEW030 28/24 A3004 RMK AO2 SLP173 T02830239 10289 20272 53017
KFLL 251253Z 24006KT 10SM FEW030 30/24 A3005 RMK AO2 SLP177 T03000239
KFLL 251353Z 21003KT 10SM CLR 31/24 A3006 RMK AO2 SLP178 T03110239



Page loaded:  14:27 UTC  |   07:27 AM Pacific  |   08:27 AM Mountain  |   09:27 AM Central  |   10:27 AM Eastern

 

ADVISORIES

FORECASTS

FORECASTS

OBSERVATIONS

USER TOOLS

ABOUT US